sensor_id;sensor_type;location;lat;lon;timestamp;temperature;humidity
23691;DHT22;43867;50.836;4.364;2022-07-22T00:00:13;17.20;99.90
23691;DHT22;43867;50.836;4.364;2022-07-22T00:02:39;17.20;99.90
23691;DHT22;43867;50.836;4.364;2022-07-22T00:05:05;17.10;99.90
23691;DHT22;43867;50.836;4.364;2022-07-22T00:07:31;17.10;99.90
23691;DHT22;43867;50.836;4.364;2022-07-22T00:09:56;17.10;99.90
23691;DHT22;43867;50.836;4.364;2022-07-22T00:12:22;17.30;99.90
23691;DHT22;43867;50.836;4.364;2022-07-22T00:14:48;17.20;99.90
23691;DHT22;43867;50.836;4.364;2022-07-22T00:17:13;17.20;99.90
23691;DHT22;43867;50.836;4.364;2022-07-22T00:19:39;17.10;99.90
23691;DHT22;43867;50.836;4.364;2022-07-22T00:22:05;17.00;99.90
23691;DHT22;43867;50.836;4.364;2022-07-22T00:24:31;17.20;99.90
23691;DHT22;43867;50.836;4.364;2022-07-22T00:26:57;17.10;99.90
23691;DHT22;43867;50.836;4.364;2022-07-22T00:29:23;17.10;99.90
23691;DHT22;43867;50.836;4.364;2022-07-22T00:31:48;17.10;99.90
23691;DHT22;43867;50.836;4.364;2022-07-22T00:34:15;17.10;99.90
23691;DHT22;43867;50.836;4.364;2022-07-22T00:36:40;16.90;99.90
23691;DHT22;43867;50.836;4.364;2022-07-22T00:39:06;16.90;99.90
23691;DHT22;43867;50.836;4.364;2022-07-22T00:41:31;16.90;99.90
23691;DHT22;43867;50.836;4.364;2022-07-22T00:43:58;16.70;99.90
23691;DHT22;43867;50.836;4.364;2022-07-22T00:46:24;16.90;99.90
23691;DHT22;43867;50.836;4.364;2022-07-22T00:48:50;16.90;99.90
23691;DHT22;43867;50.836;4.364;2022-07-22T00:51:16;16.80;99.90
23691;DHT22;43867;50.836;4.364;2022-07-22T00:53:42;16.80;99.90
23691;DHT22;43867;50.836;4.364;2022-07-22T00:56:09;16.90;99.90
23691;DHT22;43867;50.836;4.364;2022-07-22T00:58:34;16.80;99.90
23691;DHT22;43867;50.836;4.364;2022-07-22T01:01:00;16.70;99.90
23691;DHT22;43867;50.836;4.364;2022-07-22T01:03:25;16.60;99.90
23691;DHT22;43867;50.836;4.364;2022-07-22T01:05:51;16.70;99.90
23691;DHT22;43867;50.836;4.364;2022-07-22T01:08:16;16.60;99.90
23691;DHT22;43867;50.836;4.364;2022-07-22T01:10:42;16.60;99.90
23691;DHT22;43867;50.836;4.364;2022-07-22T01:13:08;16.80;99.90
23691;DHT22;43867;50.836;4.364;2022-07-22T01:15:33;16.90;99.90
23691;DHT22;43867;50.836;4.364;2022-07-22T01:17:59;16.90;99.90
23691;DHT22;43867;50.836;4.364;2022-07-22T01:20:25;16.90;99.90
23691;DHT22;43867;50.836;4.364;2022-07-22T01:22:51;16.90;99.90
23691;DHT22;43867;50.836;4.364;2022-07-22T01:25:18;16.70;99.90
23691;DHT22;43867;50.836;4.364;2022-07-22T01:27:43;16.80;99.90
23691;DHT22;43867;50.836;4.364;2022-07-22T01:30:09;16.90;99.90
23691;DHT22;43867;50.836;4.364;2022-07-22T01:32:35;16.80;99.90
23691;DHT22;43867;50.836;4.364;2022-07-22T01:35:00;16.70;99.90
23691;DHT22;43867;50.836;4.364;2022-07-22T01:37:26;16.70;99.90
23691;DHT22;43867;50.836;4.364;2022-07-22T01:39:51;16.70;99.90
23691;DHT22;43867;50.836;4.364;2022-07-22T01:42:17;16.90;99.90
23691;DHT22;43867;50.836;4.364;2022-07-22T01:44:42;16.70;99.90
23691;DHT22;43867;50.836;4.364;2022-07-22T01:47:08;16.50;99.90
23691;DHT22;43867;50.836;4.364;2022-07-22T01:49:34;16.20;99.90
23691;DHT22;43867;50.836;4.364;2022-07-22T01:52:00;16.30;99.90
23691;DHT22;43867;50.836;4.364;2022-07-22T01:54:26;16.50;99.90
23691;DHT22;43867;50.836;4.364;2022-07-22T01:56:51;16.50;99.90
23691;DHT22;43867;50.836;4.364;2022-07-22T01:59:17;16.50;99.90
23691;DHT22;43867;50.836;4.364;2022-07-22T02:01:42;16.50;99.90
23691;DHT22;43867;50.836;4.364;2022-07-22T02:04:08;16.40;99.90
23691;DHT22;43867;50.836;4.364;2022-07-22T02:06:33;16.20;99.90
23691;DHT22;43867;50.836;4.364;2022-07-22T02:08:59;16.20;99.90
23691;DHT22;43867;50.836;4.364;2022-07-22T02:11:25;16.40;99.90
23691;DHT22;43867;50.836;4.364;2022-07-22T02:13:50;16.40;99.90
23691;DHT22;43867;50.836;4.364;2022-07-22T02:16:16;16.40;99.90
23691;DHT22;43867;50.836;4.364;2022-07-22T02:18:41;16.30;99.90
23691;DHT22;43867;50.836;4.364;2022-07-22T02:21:07;16.20;99.90
23691;DHT22;43867;50.836;4.364;2022-07-22T02:23:32;16.10;99.90
23691;DHT22;43867;50.836;4.364;2022-07-22T02:25:58;16.10;99.90
23691;DHT22;43867;50.836;4.364;2022-07-22T02:28:23;16.20;99.90
23691;DHT22;43867;50.836;4.364;2022-07-22T02:30:50;16.10;99.90
23691;DHT22;43867;50.836;4.364;2022-07-22T02:33:17;16.10;99.90
23691;DHT22;43867;50.836;4.364;2022-07-22T02:35:43;16.30;99.90
23691;DHT22;43867;50.836;4.364;2022-07-22T02:38:08;16.30;99.90
23691;DHT22;43867;50.836;4.364;2022-07-22T02:40:34;16.20;99.90
23691;DHT22;43867;50.836;4.364;2022-07-22T02:43:00;16.10;99.90
23691;DHT22;43867;50.836;4.364;2022-07-22T02:45:25;16.10;99.90
23691;DHT22;43867;50.836;4.364;2022-07-22T02:47:53;15.90;99.90
23691;DHT22;43867;50.836;4.364;2022-07-22T02:50:19;15.90;99.90
23691;DHT22;43867;50.836;4.364;2022-07-22T02:52:45;16.10;99.90
23691;DHT22;43867;50.836;4.364;2022-07-22T02:55:11;16.10;99.90
23691;DHT22;43867;50.836;4.364;2022-07-22T02:57:36;16.30;99.90
23691;DHT22;43867;50.836;4.364;2022-07-22T03:00:04;16.20;99.90
23691;DHT22;43867;50.836;4.364;2022-07-22T03:02:29;16.00;99.90
23691;DHT22;43867;50.836;4.364;2022-07-22T03:04:56;16.10;99.90
23691;DHT22;43867;50.836;4.364;2022-07-22T03:07:22;16.00;99.90
23691;DHT22;43867;50.836;4.364;2022-07-22T03:09:47;16.00;99.90
23691;DHT22;43867;50.836;4.364;2022-07-22T03:12:13;16.10;99.90
23691;DHT22;43867;50.836;4.364;2022-07-22T03:14:38;16.10;99.90
23691;DHT22;43867;50.836;4.364;2022-07-22T03:17:04;15.90;99.90
23691;DHT22;43867;50.836;4.364;2022-07-22T03:19:29;15.90;99.90
23691;DHT22;43867;50.836;4.364;2022-07-22T03:21:55;15.90;99.90
23691;DHT22;43867;50.836;4.364;2022-07-22T03:24:20;15.80;99.90
23691;DHT22;43867;50.836;4.364;2022-07-22T03:26:46;16.00;99.90
23691;DHT22;43867;50.836;4.364;2022-07-22T03:29:11;15.90;99.90
23691;DHT22;43867;50.836;4.364;2022-07-22T03:31:37;16.10;99.90
23691;DHT22;43867;50.836;4.364;2022-07-22T03:34:02;16.00;99.90
23691;DHT22;43867;50.836;4.364;2022-07-22T03:36:28;15.80;99.90
23691;DHT22;43867;50.836;4.364;2022-07-22T03:38:55;15.80;99.90
23691;DHT22;43867;50.836;4.364;2022-07-22T03:41:20;15.70;99.90
23691;DHT22;43867;50.836;4.364;2022-07-22T03:43:46;15.80;99.90
23691;DHT22;43867;50.836;4.364;2022-07-22T03:46:12;15.90;99.90
23691;DHT22;43867;50.836;4.364;2022-07-22T03:48:39;16.00;99.90
23691;DHT22;43867;50.836;4.364;2022-07-22T03:51:05;15.80;99.90
23691;DHT22;43867;50.836;4.364;2022-07-22T03:53:30;15.70;99.90
23691;DHT22;43867;50.836;4.364;2022-07-22T03:55:58;15.50;99.90
23691;DHT22;43867;50.836;4.364;2022-07-22T03:58:24;15.70;99.90
23691;DHT22;43867;50.836;4.364;2022-07-22T04:00:49;15.80;99.90
23691;DHT22;43867;50.836;4.364;2022-07-22T04:03:15;15.80;99.90
23691;DHT22;43867;50.836;4.364;2022-07-22T04:05:40;15.90;99.90
23691;DHT22;43867;50.836;4.364;2022-07-22T04:08:07;16.00;99.90
23691;DHT22;43867;50.836;4.364;2022-07-22T04:10:33;16.00;99.90
23691;DHT22;43867;50.836;4.364;2022-07-22T04:12:58;16.00;99.90
23691;DHT22;43867;50.836;4.364;2022-07-22T04:15:24;15.90;99.90
23691;DHT22;43867;50.836;4.364;2022-07-22T04:17:49;15.70;99.90
23691;DHT22;43867;50.836;4.364;2022-07-22T04:20:15;15.70;99.90
23691;DHT22;43867;50.836;4.364;2022-07-22T04:22:40;15.80;99.90
23691;DHT22;43867;50.836;4.364;2022-07-22T04:25:06;15.70;99.90
23691;DHT22;43867;50.836;4.364;2022-07-22T04:27:31;15.60;99.90
23691;DHT22;43867;50.836;4.364;2022-07-22T04:29:58;15.70;99.90
23691;DHT22;43867;50.836;4.364;2022-07-22T04:32:23;15.70;99.90
23691;DHT22;43867;50.836;4.364;2022-07-22T04:34:49;15.90;99.90
23691;DHT22;43867;50.836;4.364;2022-07-22T04:37:15;15.90;99.90
23691;DHT22;43867;50.836;4.364;2022-07-22T04:39:40;15.70;99.90
23691;DHT22;43867;50.836;4.364;2022-07-22T04:42:06;15.70;99.90
23691;DHT22;43867;50.836;4.364;2022-07-22T04:44:31;15.60;99.90
23691;DHT22;43867;50.836;4.364;2022-07-22T04:46:57;15.50;99.90
23691;DHT22;43867;50.836;4.364;2022-07-22T04:49:22;15.70;99.90
23691;DHT22;43867;50.836;4.364;2022-07-22T04:51:48;15.80;99.90
23691;DHT22;43867;50.836;4.364;2022-07-22T04:54:14;15.80;99.90
23691;DHT22;43867;50.836;4.364;2022-07-22T04:56:39;15.90;99.90
23691;DHT22;43867;50.836;4.364;2022-07-22T04:59:05;16.00;99.90
23691;DHT22;43867;50.836;4.364;2022-07-22T05:01:30;16.10;99.90
23691;DHT22;43867;50.836;4.364;2022-07-22T05:03:56;16.20;99.90
23691;DHT22;43867;50.836;4.364;2022-07-22T05:06:23;16.40;99.90
23691;DHT22;43867;50.836;4.364;2022-07-22T05:08:49;16.50;99.90
23691;DHT22;43867;50.836;4.364;2022-07-22T05:11:15;16.60;99.90
23691;DHT22;43867;50.836;4.364;2022-07-22T05:13:40;16.70;99.90
23691;DHT22;43867;50.836;4.364;2022-07-22T05:16:06;16.60;99.90
23691;DHT22;43867;50.836;4.364;2022-07-22T05:18:32;16.70;99.90
23691;DHT22;43867;50.836;4.364;2022-07-22T05:20:58;16.90;99.90
23691;DHT22;43867;50.836;4.364;2022-07-22T05:23:24;17.00;99.90
23691;DHT22;43867;50.836;4.364;2022-07-22T05:25:50;17.20;99.90
23691;DHT22;43867;50.836;4.364;2022-07-22T05:28:16;17.20;99.90
23691;DHT22;43867;50.836;4.364;2022-07-22T05:30:42;17.30;99.90
23691;DHT22;43867;50.836;4.364;2022-07-22T05:33:08;17.50;99.90
23691;DHT22;43867;50.836;4.364;2022-07-22T05:35:33;17.50;99.90
23691;DHT22;43867;50.836;4.364;2022-07-22T05:37:59;17.80;99.90
23691;DHT22;43867;50.836;4.364;2022-07-22T05:40:25;17.90;99.90
23691;DHT22;43867;50.836;4.364;2022-07-22T05:42:50;17.60;99.90
23691;DHT22;43867;50.836;4.364;2022-07-22T05:45:16;17.70;99.90
23691;DHT22;43867;50.836;4.364;2022-07-22T05:47:42;17.40;99.90
23691;DHT22;43867;50.836;4.364;2022-07-22T05:50:08;17.30;99.90
23691;DHT22;43867;50.836;4.364;2022-07-22T05:52:38;17.20;99.90
23691;DHT22;43867;50.836;4.364;2022-07-22T05:55:04;17.60;99.90
23691;DHT22;43867;50.836;4.364;2022-07-22T05:57:30;17.90;99.90
23691;DHT22;43867;50.836;4.364;2022-07-22T05:59:56;18.00;99.90
23691;DHT22;43867;50.836;4.364;2022-07-22T06:02:21;18.40;99.90
23691;DHT22;43867;50.836;4.364;2022-07-22T06:04:48;18.50;99.90
23691;DHT22;43867;50.836;4.364;2022-07-22T06:07:14;18.80;99.90
23691;DHT22;43867;50.836;4.364;2022-07-22T06:09:39;18.90;99.90
23691;DHT22;43867;50.836;4.364;2022-07-22T06:12:06;18.80;99.90
23691;DHT22;43867;50.836;4.364;2022-07-22T06:14:34;19.10;99.90
23691;DHT22;43867;50.836;4.364;2022-07-22T06:17:01;19.30;99.90
23691;DHT22;43867;50.836;4.364;2022-07-22T06:19:28;19.70;99.90
23691;DHT22;43867;50.836;4.364;2022-07-22T06:21:55;20.10;99.90
23691;DHT22;43867;50.836;4.364;2022-07-22T06:24:21;20.10;99.90
23691;DHT22;43867;50.836;4.364;2022-07-22T06:26:46;19.90;99.90
23691;DHT22;43867;50.836;4.364;2022-07-22T06:29:12;19.90;99.90
23691;DHT22;43867;50.836;4.364;2022-07-22T06:31:38;19.60;99.90
23691;DHT22;43867;50.836;4.364;2022-07-22T06:34:04;19.40;99.90
23691;DHT22;43867;50.836;4.364;2022-07-22T06:36:31;19.50;99.90
23691;DHT22;43867;50.836;4.364;2022-07-22T06:38:56;19.60;99.90
23691;DHT22;43867;50.836;4.364;2022-07-22T06:41:24;19.60;99.90
23691;DHT22;43867;50.836;4.364;2022-07-22T06:43:50;19.70;99.90
23691;DHT22;43867;50.836;4.364;2022-07-22T06:46:15;20.00;99.90
23691;DHT22;43867;50.836;4.364;2022-07-22T06:48:41;20.30;99.90
23691;DHT22;43867;50.836;4.364;2022-07-22T06:51:06;20.20;99.90
23691;DHT22;43867;50.836;4.364;2022-07-22T06:53:32;20.20;99.90
23691;DHT22;43867;50.836;4.364;2022-07-22T06:55:59;19.70;99.90
23691;DHT22;43867;50.836;4.364;2022-07-22T06:58:26;19.70;99.90
23691;DHT22;43867;50.836;4.364;2022-07-22T07:00:52;19.40;99.90
23691;DHT22;43867;50.836;4.364;2022-07-22T07:03:18;19.30;99.90
23691;DHT22;43867;50.836;4.364;2022-07-22T07:05:44;19.30;99.90
23691;DHT22;43867;50.836;4.364;2022-07-22T07:08:10;19.30;99.90
23691;DHT22;43867;50.836;4.364;2022-07-22T07:10:35;19.00;99.90
23691;DHT22;43867;50.836;4.364;2022-07-22T07:13:01;18.90;99.90
23691;DHT22;43867;50.836;4.364;2022-07-22T07:15:28;19.10;99.90
23691;DHT22;43867;50.836;4.364;2022-07-22T07:17:55;19.10;99.90
23691;DHT22;43867;50.836;4.364;2022-07-22T07:20:21;19.20;99.90
23691;DHT22;43867;50.836;4.364;2022-07-22T07:22:47;19.20;99.90
23691;DHT22;43867;50.836;4.364;2022-07-22T07:25:13;19.20;99.90
23691;DHT22;43867;50.836;4.364;2022-07-22T07:27:38;19.50;99.90
23691;DHT22;43867;50.836;4.364;2022-07-22T07:30:04;19.70;99.90
23691;DHT22;43867;50.836;4.364;2022-07-22T07:32:30;19.90;99.90
23691;DHT22;43867;50.836;4.364;2022-07-22T07:34:56;19.70;99.90
23691;DHT22;43867;50.836;4.364;2022-07-22T07:37:21;19.90;99.90
23691;DHT22;43867;50.836;4.364;2022-07-22T07:39:48;20.10;99.90
23691;DHT22;43867;50.836;4.364;2022-07-22T07:42:13;20.50;99.90
23691;DHT22;43867;50.836;4.364;2022-07-22T07:44:39;20.20;99.90
23691;DHT22;43867;50.836;4.364;2022-07-22T07:47:09;20.40;99.90
23691;DHT22;43867;50.836;4.364;2022-07-22T07:49:34;19.90;99.90
23691;DHT22;43867;50.836;4.364;2022-07-22T07:52:01;19.50;99.90
23691;DHT22;43867;50.836;4.364;2022-07-22T07:54:26;19.70;99.90
23691;DHT22;43867;50.836;4.364;2022-07-22T07:56:52;20.00;99.90
23691;DHT22;43867;50.836;4.364;2022-07-22T07:59:18;20.20;99.90
23691;DHT22;43867;50.836;4.364;2022-07-22T08:01:44;20.10;99.90
23691;DHT22;43867;50.836;4.364;2022-07-22T08:04:09;20.30;99.90
23691;DHT22;43867;50.836;4.364;2022-07-22T08:06:37;20.30;99.90
23691;DHT22;43867;50.836;4.364;2022-07-22T08:09:05;20.10;99.90
23691;DHT22;43867;50.836;4.364;2022-07-22T08:11:30;19.90;99.90
23691;DHT22;43867;50.836;4.364;2022-07-22T08:13:56;20.20;99.90
23691;DHT22;43867;50.836;4.364;2022-07-22T08:16:22;20.50;99.90
23691;DHT22;43867;50.836;4.364;2022-07-22T08:18:50;20.30;99.90
23691;DHT22;43867;50.836;4.364;2022-07-22T08:21:20;20.40;99.90
23691;DHT22;43867;50.836;4.364;2022-07-22T08:23:45;20.40;99.90
23691;DHT22;43867;50.836;4.364;2022-07-22T08:26:13;20.80;99.90
23691;DHT22;43867;50.836;4.364;2022-07-22T08:28:39;20.90;99.90
23691;DHT22;43867;50.836;4.364;2022-07-22T08:31:05;21.10;99.90
23691;DHT22;43867;50.836;4.364;2022-07-22T08:33:31;21.00;99.90
23691;DHT22;43867;50.836;4.364;2022-07-22T08:35:57;20.70;99.90
23691;DHT22;43867;50.836;4.364;2022-07-22T08:38:22;20.60;99.90
23691;DHT22;43867;50.836;4.364;2022-07-22T08:40:53;20.50;99.90
23691;DHT22;43867;50.836;4.364;2022-07-22T08:43:20;21.10;99.90
23691;DHT22;43867;50.836;4.364;2022-07-22T08:45:45;21.90;99.90
23691;DHT22;43867;50.836;4.364;2022-07-22T08:48:19;21.40;99.90
23691;DHT22;43867;50.836;4.364;2022-07-22T08:50:54;21.00;99.90
23691;DHT22;43867;50.836;4.364;2022-07-22T08:53:22;21.30;99.90
23691;DHT22;43867;50.836;4.364;2022-07-22T08:55:48;21.30;99.90
23691;DHT22;43867;50.836;4.364;2022-07-22T08:58:14;21.00;99.90
23691;DHT22;43867;50.836;4.364;2022-07-22T09:00:40;21.00;99.90
23691;DHT22;43867;50.836;4.364;2022-07-22T09:03:19;20.80;99.90
23691;DHT22;43867;50.836;4.364;2022-07-22T09:05:46;20.30;99.90
23691;DHT22;43867;50.836;4.364;2022-07-22T09:08:12;20.60;99.90
23691;DHT22;43867;50.836;4.364;2022-07-22T09:10:38;20.70;99.90
23691;DHT22;43867;50.836;4.364;2022-07-22T09:13:04;20.90;99.90
23691;DHT22;43867;50.836;4.364;2022-07-22T09:15:45;21.40;99.90
23691;DHT22;43867;50.836;4.364;2022-07-22T09:18:11;21.60;99.90
23691;DHT22;43867;50.836;4.364;2022-07-22T09:20:37;22.10;99.90
23691;DHT22;43867;50.836;4.364;2022-07-22T09:23:12;22.30;99.70
23691;DHT22;43867;50.836;4.364;2022-07-22T09:25:38;22.30;99.90
23691;DHT22;43867;50.836;4.364;2022-07-22T09:30:36;22.00;99.90
23691;DHT22;43867;50.836;4.364;2022-07-22T09:33:06;21.90;99.90
23691;DHT22;43867;50.836;4.364;2022-07-22T09:35:32;22.40;99.40
23691;DHT22;43867;50.836;4.364;2022-07-22T09:37:58;22.80;98.20
23691;DHT22;43867;50.836;4.364;2022-07-22T09:40:25;22.50;99.10
23691;DHT22;43867;50.836;4.364;2022-07-22T09:42:52;22.70;98.50
23691;DHT22;43867;50.836;4.364;2022-07-22T09:47:48;23.10;97.30
23691;DHT22;43867;50.836;4.364;2022-07-22T09:50:14;22.80;97.70
23691;DHT22;43867;50.836;4.364;2022-07-22T09:52:40;22.50;97.90
23691;DHT22;43867;50.836;4.364;2022-07-22T09:55:07;22.50;97.60
23691;DHT22;43867;50.836;4.364;2022-07-22T09:57:35;22.60;98.10
23691;DHT22;43867;50.836;4.364;2022-07-22T10:00:02;22.20;98.70
23691;DHT22;43867;50.836;4.364;2022-07-22T10:02:31;22.30;98.80
23691;DHT22;43867;50.836;4.364;2022-07-22T10:04:57;22.00;98.30
23691;DHT22;43867;50.836;4.364;2022-07-22T10:07:24;21.50;99.10
23691;DHT22;43867;50.836;4.364;2022-07-22T10:09:51;21.40;99.90
23691;DHT22;43867;50.836;4.364;2022-07-22T10:12:19;21.20;99.90
23691;DHT22;43867;50.836;4.364;2022-07-22T10:14:45;21.30;99.90
23691;DHT22;43867;50.836;4.364;2022-07-22T10:17:14;21.70;99.90
23691;DHT22;43867;50.836;4.364;2022-07-22T10:19:40;21.90;99.90
23691;DHT22;43867;50.836;4.364;2022-07-22T10:22:53;22.40;99.30
23691;DHT22;43867;50.836;4.364;2022-07-22T10:25:01;22.00;99.70
23691;DHT22;43867;50.836;4.364;2022-07-22T10:30:16;22.70;98.00
23691;DHT22;43867;50.836;4.364;2022-07-22T10:32:42;22.50;98.60
23691;DHT22;43867;50.836;4.364;2022-07-22T10:45:24;23.20;96.20
23691;DHT22;43867;50.836;4.364;2022-07-22T10:47:52;23.10;95.90
23691;DHT22;43867;50.836;4.364;2022-07-22T10:56:16;23.20;97.60
23691;DHT22;43867;50.836;4.364;2022-07-22T10:58:43;23.10;96.80
23691;DHT22;43867;50.836;4.364;2022-07-22T11:01:11;23.20;96.90
23691;DHT22;43867;50.836;4.364;2022-07-22T11:03:38;23.30;97.00
23691;DHT22;43867;50.836;4.364;2022-07-22T11:08:40;22.70;97.60
23691;DHT22;43867;50.836;4.364;2022-07-22T11:11:06;22.30;98.10
23691;DHT22;43867;50.836;4.364;2022-07-22T11:13:32;22.60;97.40
23691;DHT22;43867;50.836;4.364;2022-07-22T11:16:14;22.60;96.80
23691;DHT22;43867;50.836;4.364;2022-07-22T11:21:18;22.50;97.10
23691;DHT22;43867;50.836;4.364;2022-07-22T11:23:44;22.60;96.60
23691;DHT22;43867;50.836;4.364;2022-07-22T11:26:13;22.10;98.90
23691;DHT22;43867;50.836;4.364;2022-07-22T11:28:39;21.80;99.90
23691;DHT22;43867;50.836;4.364;2022-07-22T11:31:06;22.20;99.90
23691;DHT22;43867;50.836;4.364;2022-07-22T11:33:31;22.80;99.80
23691;DHT22;43867;50.836;4.364;2022-07-22T11:36:03;23.50;97.90
23691;DHT22;43867;50.836;4.364;2022-07-22T11:38:39;23.20;96.90
23691;DHT22;43867;50.836;4.364;2022-07-22T11:41:05;23.40;96.90
23691;DHT22;43867;50.836;4.364;2022-07-22T11:43:37;23.60;95.80
23691;DHT22;43867;50.836;4.364;2022-07-22T11:46:02;23.30;96.90
23691;DHT22;43867;50.836;4.364;2022-07-22T11:48:29;23.50;96.40
23691;DHT22;43867;50.836;4.364;2022-07-22T11:51:01;24.00;95.40
23691;DHT22;43867;50.836;4.364;2022-07-22T11:53:27;24.10;93.80
23691;DHT22;43867;50.836;4.364;2022-07-22T11:55:56;23.50;95.50
23691;DHT22;43867;50.836;4.364;2022-07-22T12:01:16;23.40;96.20
23691;DHT22;43867;50.836;4.364;2022-07-22T12:03:52;23.70;95.60
23691;DHT22;43867;50.836;4.364;2022-07-22T12:06:18;23.70;95.10
23691;DHT22;43867;50.836;4.364;2022-07-22T12:08:51;23.50;94.70
23691;DHT22;43867;50.836;4.364;2022-07-22T12:11:18;23.20;95.70
23691;DHT22;43867;50.836;4.364;2022-07-22T12:13:44;22.90;96.80
23691;DHT22;43867;50.836;4.364;2022-07-22T12:16:27;23.30;97.60
23691;DHT22;43867;50.836;4.364;2022-07-22T12:19:07;23.40;96.20
23691;DHT22;43867;50.836;4.364;2022-07-22T12:21:34;23.60;96.60
23691;DHT22;43867;50.836;4.364;2022-07-22T12:26:45;24.00;94.00
23691;DHT22;43867;50.836;4.364;2022-07-22T12:29:17;23.80;94.20
23691;DHT22;43867;50.836;4.364;2022-07-22T12:31:44;23.90;95.20
23691;DHT22;43867;50.836;4.364;2022-07-22T12:34:10;24.00;95.10
23691;DHT22;43867;50.836;4.364;2022-07-22T12:36:36;24.30;94.00
23691;DHT22;43867;50.836;4.364;2022-07-22T12:39:11;24.60;92.70
23691;DHT22;43867;50.836;4.364;2022-07-22T12:41:43;24.40;92.00
23691;DHT22;43867;50.836;4.364;2022-07-22T12:44:30;24.40;92.60
23691;DHT22;43867;50.836;4.364;2022-07-22T12:46:55;24.10;92.20
23691;DHT22;43867;50.836;4.364;2022-07-22T12:49:22;23.80;92.70
23691;DHT22;43867;50.836;4.364;2022-07-22T12:52:04;23.30;94.70
23691;DHT22;43867;50.836;4.364;2022-07-22T12:54:29;23.30;95.70
23691;DHT22;43867;50.836;4.364;2022-07-22T12:56:57;23.30;95.50
23691;DHT22;43867;50.836;4.364;2022-07-22T12:59:23;23.60;95.40
23691;DHT22;43867;50.836;4.364;2022-07-22T13:01:49;23.60;94.20
23691;DHT22;43867;50.836;4.364;2022-07-22T13:04:15;23.80;94.40
23691;DHT22;43867;50.836;4.364;2022-07-22T13:06:40;23.70;93.70
23691;DHT22;43867;50.836;4.364;2022-07-22T13:09:06;23.30;94.90
23691;DHT22;43867;50.836;4.364;2022-07-22T13:11:34;23.80;94.70
23691;DHT22;43867;50.836;4.364;2022-07-22T13:14:09;24.00;95.00
23691;DHT22;43867;50.836;4.364;2022-07-22T13:16:42;24.30;94.30
23691;DHT22;43867;50.836;4.364;2022-07-22T13:19:07;24.70;93.50
23691;DHT22;43867;50.836;4.364;2022-07-22T13:21:33;24.80;93.10
23691;DHT22;43867;50.836;4.364;2022-07-22T13:23:58;24.90;91.90
23691;DHT22;43867;50.836;4.364;2022-07-22T13:26:25;24.70;91.80
23691;DHT22;43867;50.836;4.364;2022-07-22T13:28:51;23.80;94.40
23691;DHT22;43867;50.836;4.364;2022-07-22T13:31:18;24.00;95.40
23691;DHT22;43867;50.836;4.364;2022-07-22T13:33:43;24.00;94.80
23691;DHT22;43867;50.836;4.364;2022-07-22T13:36:09;23.80;94.40
23691;DHT22;43867;50.836;4.364;2022-07-22T13:38:35;23.80;94.70
23691;DHT22;43867;50.836;4.364;2022-07-22T13:41:02;23.80;94.90
23691;DHT22;43867;50.836;4.364;2022-07-22T13:43:28;23.90;94.90
23691;DHT22;43867;50.836;4.364;2022-07-22T13:45:55;23.60;95.90
23691;DHT22;43867;50.836;4.364;2022-07-22T13:48:21;23.70;95.90
23691;DHT22;43867;50.836;4.364;2022-07-22T13:50:46;23.70;96.10
23691;DHT22;43867;50.836;4.364;2022-07-22T13:53:13;23.80;96.40
23691;DHT22;43867;50.836;4.364;2022-07-22T13:55:39;23.80;95.70
23691;DHT22;43867;50.836;4.364;2022-07-22T13:58:05;23.80;95.60
23691;DHT22;43867;50.836;4.364;2022-07-22T14:00:31;23.70;96.70
23691;DHT22;43867;50.836;4.364;2022-07-22T14:02:57;23.80;97.00
23691;DHT22;43867;50.836;4.364;2022-07-22T14:05:23;24.10;95.80
23691;DHT22;43867;50.836;4.364;2022-07-22T14:07:49;24.10;96.00
23691;DHT22;43867;50.836;4.364;2022-07-22T14:10:14;23.50;96.30
23691;DHT22;43867;50.836;4.364;2022-07-22T14:12:40;23.40;96.70
23691;DHT22;43867;50.836;4.364;2022-07-22T14:15:07;23.20;97.30
23691;DHT22;43867;50.836;4.364;2022-07-22T14:17:33;23.30;97.10
23691;DHT22;43867;50.836;4.364;2022-07-22T14:19:58;23.40;97.10
23691;DHT22;43867;50.836;4.364;2022-07-22T14:22:26;23.50;96.70
23691;DHT22;43867;50.836;4.364;2022-07-22T14:24:51;23.70;96.50
23691;DHT22;43867;50.836;4.364;2022-07-22T14:27:18;23.80;96.00
23691;DHT22;43867;50.836;4.364;2022-07-22T14:29:45;23.80;95.70
23691;DHT22;43867;50.836;4.364;2022-07-22T14:32:10;23.20;96.90
23691;DHT22;43867;50.836;4.364;2022-07-22T14:34:36;23.00;98.60
23691;DHT22;43867;50.836;4.364;2022-07-22T14:37:02;22.90;98.60
23691;DHT22;43867;50.836;4.364;2022-07-22T14:39:27;23.10;98.30
23691;DHT22;43867;50.836;4.364;2022-07-22T14:41:53;23.00;99.00
23691;DHT22;43867;50.836;4.364;2022-07-22T14:44:19;23.00;99.50
23691;DHT22;43867;50.836;4.364;2022-07-22T14:46:44;23.30;98.60
23691;DHT22;43867;50.836;4.364;2022-07-22T14:49:10;23.20;98.80
23691;DHT22;43867;50.836;4.364;2022-07-22T14:51:37;23.10;99.10
23691;DHT22;43867;50.836;4.364;2022-07-22T14:54:02;23.40;98.90
23691;DHT22;43867;50.836;4.364;2022-07-22T14:56:30;23.50;97.80
23691;DHT22;43867;50.836;4.364;2022-07-22T14:58:55;23.20;98.10
23691;DHT22;43867;50.836;4.364;2022-07-22T15:01:21;22.80;99.00
23691;DHT22;43867;50.836;4.364;2022-07-22T15:03:47;22.80;99.90
23691;DHT22;43867;50.836;4.364;2022-07-22T15:06:12;22.80;99.90
23691;DHT22;43867;50.836;4.364;2022-07-22T15:08:38;22.80;99.90
23691;DHT22;43867;50.836;4.364;2022-07-22T15:11:04;22.70;99.90
23691;DHT22;43867;50.836;4.364;2022-07-22T15:13:30;23.00;99.90
23691;DHT22;43867;50.836;4.364;2022-07-22T15:15:56;23.00;99.90
23691;DHT22;43867;50.836;4.364;2022-07-22T15:18:22;23.20;99.90
23691;DHT22;43867;50.836;4.364;2022-07-22T15:20:48;23.40;99.80
23691;DHT22;43867;50.836;4.364;2022-07-22T15:23:14;23.70;99.10
23691;DHT22;43867;50.836;4.364;2022-07-22T15:25:40;23.60;99.10
23691;DHT22;43867;50.836;4.364;2022-07-22T15:28:11;23.70;98.90
23691;DHT22;43867;50.836;4.364;2022-07-22T15:30:37;23.60;99.00
23691;DHT22;43867;50.836;4.364;2022-07-22T15:33:02;23.60;99.10
23691;DHT22;43867;50.836;4.364;2022-07-22T15:35:28;23.50;99.40
23691;DHT22;43867;50.836;4.364;2022-07-22T15:37:54;23.50;99.40
23691;DHT22;43867;50.836;4.364;2022-07-22T15:40:20;23.90;98.70
23691;DHT22;43867;50.836;4.364;2022-07-22T15:42:46;23.80;98.30
23691;DHT22;43867;50.836;4.364;2022-07-22T15:45:12;23.60;98.20
23691;DHT22;43867;50.836;4.364;2022-07-22T15:47:37;23.70;98.90
23691;DHT22;43867;50.836;4.364;2022-07-22T15:50:03;23.50;98.50
23691;DHT22;43867;50.836;4.364;2022-07-22T15:52:29;23.60;98.80
23691;DHT22;43867;50.836;4.364;2022-07-22T15:54:54;23.40;99.10
23691;DHT22;43867;50.836;4.364;2022-07-22T15:57:20;23.20;99.50
23691;DHT22;43867;50.836;4.364;2022-07-22T16:00:15;23.20;99.90